createdAt,value
2018-06-29T00:00:14.633Z,1008.39
2018-06-29T00:01:14.697Z,1008.41
2018-06-29T00:02:14.760Z,1008.43
2018-06-29T00:03:14.826Z,1008.43
2018-06-29T00:04:14.884Z,1008.42
2018-06-29T00:05:14.947Z,1008.40
2018-06-29T00:06:15.011Z,1008.45
2018-06-29T00:07:15.074Z,1008.42
2018-06-29T00:08:15.135Z,1008.40
2018-06-29T00:09:15.197Z,1008.44
2018-06-29T00:10:15.260Z,1008.43
2018-06-29T00:11:15.322Z,1008.43
2018-06-29T00:12:15.636Z,1008.43
2018-06-29T00:13:15.449Z,1008.44
2018-06-29T00:14:15.512Z,1008.49
2018-06-29T00:15:15.574Z,1008.45
2018-06-29T00:16:15.635Z,1008.46
2018-06-29T00:17:15.698Z,1008.46
2018-06-29T00:18:16.012Z,1008.51
2018-06-29T00:19:15.825Z,1008.44
2018-06-29T00:20:15.885Z,1008.48
2018-06-29T00:21:15.948Z,1008.43
2018-06-29T00:22:16.011Z,1008.46
2018-06-29T00:23:16.325Z,1008.50
2018-06-29T00:24:16.135Z,1008.51
2018-06-29T00:25:16.198Z,1008.45
2018-06-29T00:26:16.261Z,1008.45
2018-06-29T00:27:16.324Z,1008.48
2018-06-29T00:28:16.386Z,1008.47
2018-06-29T00:29:16.450Z,1008.46
2018-06-29T00:30:16.512Z,1008.49
2018-06-29T00:31:16.576Z,1008.49
2018-06-29T00:32:16.636Z,1008.47
2018-06-29T00:33:16.699Z,1008.48
2018-06-29T00:34:16.762Z,1008.49
2018-06-29T00:35:16.828Z,1008.48
2018-06-29T00:36:16.889Z,1008.54
2018-06-29T00:37:16.951Z,1008.53
2018-06-29T00:38:17.012Z,1008.54
2018-06-29T00:39:17.078Z,1008.49
2018-06-29T00:40:17.136Z,1008.51
2018-06-29T00:41:17.306Z,1008.56
2018-06-29T00:42:17.265Z,1008.54
2018-06-29T00:43:17.331Z,1008.52
2018-06-29T00:44:17.388Z,1008.55
2018-06-29T00:45:17.450Z,1008.57
2018-06-29T00:46:17.513Z,1008.58
2018-06-29T00:47:17.576Z,1008.59
2018-06-29T00:48:17.637Z,1008.54
2018-06-29T00:49:17.704Z,1008.56
2018-06-29T00:50:17.762Z,1008.56
2018-06-29T00:51:17.828Z,1008.54
2018-06-29T00:52:17.888Z,1008.56
2018-06-29T00:53:17.950Z,1008.52
2018-06-29T00:54:18.014Z,1008.51
2018-06-29T00:55:18.089Z,1008.52
2018-06-29T00:56:18.137Z,1008.51
2018-06-29T00:57:18.201Z,1008.51
2018-06-29T00:58:18.263Z,1008.49
2018-06-29T00:59:18.328Z,1008.50
2018-06-29T01:00:18.387Z,1008.49
2018-06-29T01:01:18.450Z,1008.47
2018-06-29T01:02:18.513Z,1008.46
2018-06-29T01:03:18.576Z,1008.50
2018-06-29T01:04:18.637Z,1008.51
2018-06-29T01:05:18.703Z,1008.46
2018-06-29T01:06:18.765Z,1008.47
2018-06-29T01:07:18.824Z,1008.46
2018-06-29T01:08:18.977Z,1008.45
2018-06-29T01:09:18.949Z,1008.45
2018-06-29T01:10:19.013Z,1008.42
2018-06-29T01:11:19.074Z,1008.45
2018-06-29T01:12:19.138Z,1008.47
2018-06-29T01:13:19.200Z,1008.48
2018-06-29T01:14:19.266Z,1008.49
2018-06-29T01:15:19.324Z,1008.51
2018-06-29T01:16:19.388Z,1008.52
2018-06-29T01:17:19.449Z,1008.50
2018-06-29T01:18:19.510Z,1008.54
2018-06-29T01:19:19.574Z,1008.53
2018-06-29T01:20:19.654Z,1008.50
2018-06-29T01:21:19.698Z,1008.51
2018-06-29T01:22:19.767Z,1008.51
2018-06-29T01:23:19.823Z,1008.49
2018-06-29T01:24:19.885Z,1008.46
2018-06-29T01:25:19.947Z,1008.54
2018-06-29T01:26:20.010Z,1008.51
2018-06-29T01:27:20.072Z,1008.51
2018-06-29T01:28:20.133Z,1008.54
2018-06-29T01:29:20.447Z,1008.50
2018-06-29T01:30:20.260Z,1008.51
2018-06-29T01:31:20.322Z,1008.51
2018-06-29T01:32:20.384Z,1008.47
2018-06-29T01:33:20.453Z,1008.45
2018-06-29T01:34:20.511Z,1008.47
2018-06-29T01:35:20.571Z,1008.45
2018-06-29T01:36:20.634Z,1008.45
2018-06-29T01:37:20.695Z,1008.41
2018-06-29T01:38:20.758Z,1008.45
2018-06-29T01:39:20.821Z,1008.41
2018-06-29T01:40:20.882Z,1008.45
2018-06-29T01:41:23.986Z,1008.45
2018-06-29T01:42:21.009Z,1008.42
2018-06-29T01:43:21.071Z,1008.41
2018-06-29T01:44:21.132Z,1008.46
2018-06-29T01:45:21.195Z,1008.40
2018-06-29T01:46:21.258Z,1008.38
2018-06-29T01:47:21.321Z,1008.41
2018-06-29T01:48:21.382Z,1008.38
2018-06-29T01:49:21.444Z,1008.39
2018-06-29T01:50:21.508Z,1008.33
2018-06-29T01:51:21.573Z,1008.33
2018-06-29T01:52:21.632Z,1008.31
2018-06-29T01:53:21.694Z,1008.31
2018-06-29T01:54:21.767Z,1008.29
2018-06-29T01:55:21.820Z,1008.30
2018-06-29T01:56:21.882Z,1008.31
2018-06-29T01:57:21.944Z,1008.26
2018-06-29T01:58:22.007Z,1008.28
2018-06-29T01:59:22.069Z,1008.29
2018-06-29T02:00:22.130Z,1008.33
2018-06-29T02:01:22.197Z,1008.32
2018-06-29T02:02:22.265Z,1008.32
2018-06-29T02:03:22.318Z,1008.29
2018-06-29T02:04:22.382Z,1008.30
2018-06-29T02:05:22.443Z,1008.30
2018-06-29T02:06:22.505Z,1008.25
2018-06-29T02:07:22.567Z,1008.27
2018-06-29T02:08:22.632Z,1008.31
2018-06-29T02:09:22.691Z,1008.28
2018-06-29T02:10:22.757Z,1008.26
2018-06-29T02:11:22.816Z,1008.28
2018-06-29T02:12:22.880Z,1008.23
2018-06-29T02:13:22.941Z,1008.24
2018-06-29T02:14:23.003Z,1008.24
2018-06-29T02:15:23.066Z,1008.21
2018-06-29T02:16:23.127Z,1008.20
2018-06-29T02:17:23.190Z,1008.19
2018-06-29T02:18:23.253Z,1008.15
2018-06-29T02:19:23.316Z,1008.16
2018-06-29T02:20:23.378Z,1008.16
2018-06-29T02:21:23.449Z,1008.17
2018-06-29T02:22:23.502Z,1008.17
2018-06-29T02:23:23.565Z,1008.16
2018-06-29T02:24:23.626Z,1008.15
2018-06-29T02:25:23.691Z,1008.16
2018-06-29T02:26:23.751Z,1008.15
2018-06-29T02:27:23.815Z,1008.12
2018-06-29T02:28:23.875Z,1008.16
2018-06-29T02:29:23.937Z,1008.16
2018-06-29T02:30:24.004Z,1008.17
2018-06-29T02:31:24.063Z,1008.16
2018-06-29T02:32:24.124Z,1008.15
2018-06-29T02:33:24.189Z,1008.17
2018-06-29T02:34:24.250Z,1008.18
2018-06-29T02:35:24.311Z,1008.16
2018-06-29T02:36:24.376Z,1008.18
2018-06-29T02:37:24.438Z,1008.20
2018-06-29T02:38:24.499Z,1008.13
2018-06-29T02:39:24.564Z,1008.14
2018-06-29T02:40:24.622Z,1008.16
2018-06-29T02:41:24.684Z,1008.13
2018-06-29T02:42:24.748Z,1008.12
2018-06-29T02:43:24.810Z,1008.11
2018-06-29T02:44:24.877Z,1008.10
2018-06-29T02:45:24.935Z,1008.14
2018-06-29T02:46:24.996Z,1008.08
2018-06-29T02:47:25.059Z,1008.05
2018-06-29T02:48:25.121Z,1008.10
2018-06-29T02:49:25.182Z,1008.06
2018-06-29T02:50:25.256Z,1008.10
2018-06-29T02:51:25.324Z,1008.08
2018-06-29T02:52:25.381Z,1008.05
2018-06-29T02:53:25.432Z,1008.06
2018-06-29T02:54:25.513Z,1008.06
2018-06-29T02:55:25.557Z,1008.08
2018-06-29T02:56:28.928Z,1008.05
2018-06-29T02:57:25.681Z,1008.06
2018-06-29T02:58:25.745Z,1008.09
2018-06-29T02:59:25.806Z,1008.07
2018-06-29T03:00:25.868Z,1008.05
2018-06-29T03:01:29.389Z,1008.12
2018-06-29T03:02:25.993Z,1008.10
2018-06-29T03:03:26.056Z,1008.08
2018-06-29T03:04:26.122Z,1008.07
2018-06-29T03:05:26.180Z,1008.07
2018-06-29T03:06:26.243Z,1008.06
2018-06-29T03:07:26.309Z,1008.09
2018-06-29T03:08:26.366Z,1008.09
2018-06-29T03:09:26.431Z,1008.04
2018-06-29T03:10:26.492Z,1008.06
2018-06-29T03:11:26.553Z,1007.99
2018-06-29T03:12:26.615Z,1008.02
2018-06-29T03:13:26.686Z,1007.99
2018-06-29T03:14:26.741Z,1007.99
2018-06-29T03:15:26.803Z,1008.01
2018-06-29T03:16:26.866Z,1007.97
2018-06-29T03:17:26.926Z,1007.98
2018-06-29T03:18:26.990Z,1008.03
2018-06-29T03:19:27.052Z,1008.02
2018-06-29T03:20:27.114Z,1008.06
2018-06-29T03:21:27.177Z,1008.02
2018-06-29T03:22:27.240Z,1007.99
2018-06-29T03:23:27.320Z,1008.03
2018-06-29T03:24:27.363Z,1008.03
2018-06-29T03:25:27.426Z,1008.01
2018-06-29T03:26:27.488Z,1008.00
2018-06-29T03:27:27.550Z,1008.02
2018-06-29T03:28:27.611Z,1008.02
2018-06-29T03:29:27.674Z,1008.02
2018-06-29T03:30:27.737Z,1008.02
2018-06-29T03:31:27.800Z,1008.05
2018-06-29T03:32:27.861Z,1008.05
2018-06-29T03:33:27.923Z,1008.02
2018-06-29T03:34:27.985Z,1008.03
2018-06-29T03:35:28.052Z,1008.05
2018-06-29T03:36:28.110Z,1008.05
2018-06-29T03:37:28.172Z,1008.03
2018-06-29T03:38:28.235Z,1008.00
2018-06-29T03:39:28.297Z,1008.00
2018-06-29T03:40:28.425Z,1008.01
2018-06-29T03:41:28.422Z,1008.00
2018-06-29T03:42:28.484Z,1008.00
2018-06-29T03:43:28.548Z,1008.00
2018-06-29T03:44:28.608Z,1007.98
2018-06-29T03:45:28.671Z,1008.00
2018-06-29T03:46:28.734Z,1008.00
2018-06-29T03:47:28.797Z,1008.02
2018-06-29T03:48:28.858Z,1008.04
2018-06-29T03:49:28.967Z,1008.00
2018-06-29T03:50:28.983Z,1008.06
2018-06-29T03:51:29.296Z,1008.05
2018-06-29T03:52:29.107Z,1008.04
2018-06-29T03:53:29.173Z,1008.06
2018-06-29T03:54:29.233Z,1008.03
2018-06-29T03:55:29.296Z,1008.01
2018-06-29T03:56:29.356Z,1008.06
2018-06-29T03:57:29.418Z,1008.06
2018-06-29T03:58:29.481Z,1008.03
2018-06-29T03:59:29.543Z,1008.04
2018-06-29T04:00:29.609Z,1008.06
2018-06-29T04:01:29.671Z,1008.05
2018-06-29T04:02:29.732Z,1008.03
2018-06-29T04:03:29.794Z,1008.04
2018-06-29T04:04:29.855Z,1007.99
2018-06-29T04:05:29.918Z,1008.00
2018-06-29T04:06:29.981Z,1007.99
2018-06-29T04:07:30.043Z,1008.01
2018-06-29T04:08:30.105Z,1008.00
2018-06-29T04:09:30.167Z,1008.02
2018-06-29T04:10:30.230Z,1008.02
2018-06-29T04:11:30.293Z,1008.04
2018-06-29T04:12:30.354Z,1008.02
2018-06-29T04:13:30.416Z,1008.04
2018-06-29T04:14:30.480Z,1008.00
2018-06-29T04:15:30.542Z,1007.99
2018-06-29T04:16:30.603Z,1008.00
2018-06-29T04:17:30.667Z,1008.03
2018-06-29T04:18:30.728Z,1008.04
2018-06-29T04:19:30.791Z,1008.03
2018-06-29T04:20:30.852Z,1008.09
2018-06-29T04:21:30.919Z,1008.12
2018-06-29T04:22:30.995Z,1008.08
2018-06-29T04:23:31.042Z,1008.07
2018-06-29T04:24:31.102Z,1007.99
2018-06-29T04:25:31.183Z,1008.01
2018-06-29T04:26:31.259Z,1008.00
2018-06-29T04:27:31.556Z,1008.02
2018-06-29T04:28:31.352Z,1008.00
2018-06-29T04:29:31.414Z,1007.96
2018-06-29T04:30:31.503Z,1007.97
2018-06-29T04:31:31.540Z,1007.98
2018-06-29T04:32:31.602Z,1007.98
2018-06-29T04:33:31.669Z,1007.98
2018-06-29T04:34:31.726Z,1007.99
2018-06-29T04:35:31.793Z,1007.98
2018-06-29T04:36:31.852Z,1007.99
2018-06-29T04:37:31.914Z,1007.99
2018-06-29T04:38:31.977Z,1008.04
2018-06-29T04:39:32.039Z,1008.01
2018-06-29T04:40:32.574Z,1008.00
2018-06-29T04:41:32.165Z,1008.01
2018-06-29T04:42:32.228Z,1008.04
2018-06-29T04:43:32.291Z,1008.03
2018-06-29T04:44:32.352Z,1008.05
2018-06-29T04:45:32.414Z,1008.07
2018-06-29T04:46:32.477Z,1008.05
2018-06-29T04:47:32.541Z,1008.04
2018-06-29T04:48:32.853Z,1008.06
2018-06-29T04:49:32.666Z,1008.08
2018-06-29T04:50:32.731Z,1008.07
2018-06-29T04:51:32.791Z,1008.08
2018-06-29T04:52:32.853Z,1008.09
2018-06-29T04:53:33.066Z,1008.12
2018-06-29T04:54:32.979Z,1008.09
2018-06-29T04:55:33.042Z,1008.15
2018-06-29T04:56:33.105Z,1008.17
2018-06-29T04:57:33.167Z,1008.17
2018-06-29T04:58:33.229Z,1008.20
2018-06-29T04:59:33.292Z,1008.20
2018-06-29T05:00:33.355Z,1008.17
2018-06-29T05:01:33.418Z,1008.21
2018-06-29T05:02:33.481Z,1008.21
2018-06-29T05:03:33.544Z,1008.20
2018-06-29T05:04:33.606Z,1008.23
2018-06-29T05:05:33.670Z,1008.22
2018-06-29T05:06:33.733Z,1008.23
2018-06-29T05:07:33.796Z,1008.22
2018-06-29T05:08:33.861Z,1008.21
2018-06-29T05:09:33.922Z,1008.22
2018-06-29T05:10:33.984Z,1008.22
2018-06-29T05:11:34.048Z,1008.22
2018-06-29T05:12:34.110Z,1008.21
2018-06-29T05:13:34.174Z,1008.26
2018-06-29T05:14:34.238Z,1008.24
2018-06-29T05:15:34.315Z,1008.30
2018-06-29T05:16:34.362Z,1008.29
2018-06-29T05:17:34.427Z,1008.32
2018-06-29T05:18:34.490Z,1008.30
2018-06-29T05:19:34.557Z,1008.32
2018-06-29T05:20:34.924Z,1008.34
2018-06-29T05:21:35.010Z,1008.32
2018-06-29T05:22:34.742Z,1008.31
2018-06-29T05:23:35.144Z,1008.34
2018-06-29T05:24:34.880Z,1008.35
2018-06-29T05:25:35.280Z,1008.39
2018-06-29T05:26:35.342Z,1008.38
2018-06-29T05:27:35.402Z,1008.41
2018-06-29T05:28:35.490Z,1008.42
2018-06-29T05:29:35.224Z,1008.43
2018-06-29T05:30:35.338Z,1008.42
2018-06-29T05:31:35.311Z,1008.44
2018-06-29T05:32:35.388Z,1008.41
2018-06-29T05:33:35.466Z,1008.40
2018-06-29T05:34:35.808Z,1008.39
2018-06-29T05:35:35.563Z,1008.39
2018-06-29T05:36:35.630Z,1008.37
2018-06-29T05:37:35.690Z,1008.41
2018-06-29T05:38:35.754Z,1008.36
2018-06-29T05:39:35.818Z,1008.38
2018-06-29T05:40:35.880Z,1008.35
2018-06-29T05:41:36.098Z,1008.33
2018-06-29T05:42:36.071Z,1008.31
2018-06-29T05:43:36.071Z,1008.31
2018-06-29T05:44:36.136Z,1008.29
2018-06-29T05:45:36.197Z,1008.33
2018-06-29T05:46:36.260Z,1008.28
2018-06-29T05:47:36.326Z,1008.27
2018-06-29T05:48:36.390Z,1008.32
2018-06-29T05:49:36.451Z,1008.33
2018-06-29T05:50:36.517Z,1008.36
2018-06-29T05:51:36.599Z,1008.29
2018-06-29T05:52:36.641Z,1008.31
2018-06-29T05:53:36.704Z,1008.34
2018-06-29T05:54:36.771Z,1008.31
2018-06-29T05:55:36.833Z,1008.27
2018-06-29T05:56:36.895Z,1008.27
2018-06-29T05:57:36.961Z,1008.26
2018-06-29T05:58:37.023Z,1008.28
2018-06-29T05:59:37.099Z,1008.28
2018-06-29T06:00:37.150Z,1008.30
2018-06-29T06:01:37.214Z,1008.28
2018-06-29T06:02:37.277Z,1008.29
2018-06-29T06:03:37.344Z,1008.29
2018-06-29T06:04:37.460Z,1008.27
2018-06-29T06:05:37.472Z,1008.28
2018-06-29T06:06:37.530Z,1008.23
2018-06-29T06:07:37.745Z,1008.26
2018-06-29T06:08:37.657Z,1008.26
2018-06-29T06:09:37.722Z,1008.29
2018-06-29T06:10:37.785Z,1008.29
2018-06-29T06:11:37.850Z,1008.32
2018-06-29T06:12:37.912Z,1008.30
2018-06-29T06:13:37.976Z,1008.25
2018-06-29T06:14:38.039Z,1008.26
2018-06-29T06:15:38.102Z,1008.24
2018-06-29T06:16:38.166Z,1008.24
2018-06-29T06:17:38.250Z,1008.25
2018-06-29T06:18:38.295Z,1008.24
2018-06-29T06:19:38.358Z,1008.23
2018-06-29T06:20:38.431Z,1008.22
2018-06-29T06:21:38.483Z,1008.18
2018-06-29T06:22:38.549Z,1008.20
2018-06-29T06:23:38.613Z,1008.24
2018-06-29T06:24:38.675Z,1008.24
2018-06-29T06:25:38.739Z,1008.21
2018-06-29T06:26:38.817Z,1008.19
2018-06-29T06:27:38.868Z,1008.21
2018-06-29T06:28:38.931Z,1008.21
2018-06-29T06:29:38.995Z,1008.18
2018-06-29T06:30:39.059Z,1008.20
2018-06-29T06:31:39.123Z,1008.16
2018-06-29T06:32:39.186Z,1008.15
2018-06-29T06:33:39.251Z,1008.17
2018-06-29T06:34:39.315Z,1008.16
2018-06-29T06:35:39.379Z,1008.14
2018-06-29T06:36:39.442Z,1008.09
2018-06-29T06:37:39.504Z,1008.10
2018-06-29T06:38:39.570Z,1008.09
2018-06-29T06:39:39.635Z,1008.10
2018-06-29T06:40:39.697Z,1008.08
2018-06-29T06:41:39.802Z,1008.09
2018-06-29T06:42:39.827Z,1008.08
2018-06-29T06:43:39.891Z,1008.09
2018-06-29T06:44:39.953Z,1008.07
2018-06-29T06:45:40.020Z,1008.09
2018-06-29T06:46:40.082Z,1008.03
2018-06-29T06:47:40.147Z,1008.06
2018-06-29T06:48:40.209Z,1008.05
2018-06-29T06:49:40.274Z,1008.07
2018-06-29T06:50:40.428Z,1008.05
2018-06-29T06:51:40.403Z,1008.03
2018-06-29T06:52:40.470Z,1008.07
2018-06-29T06:53:40.567Z,1008.10
2018-06-29T06:54:40.600Z,1008.08
2018-06-29T06:55:40.663Z,1008.06
2018-06-29T06:56:41.439Z,1008.07
2018-06-29T06:57:41.453Z,1008.10
2018-06-29T06:58:40.852Z,1008.09
2018-06-29T06:59:40.916Z,1008.06
2018-06-29T07:00:40.981Z,1008.02
2018-06-29T07:01:41.046Z,1008.00
2018-06-29T07:02:41.110Z,1008.02
2018-06-29T07:03:41.260Z,1008.02
2018-06-29T07:04:41.240Z,1008.03
2018-06-29T07:05:41.305Z,1008.00
2018-06-29T07:06:41.370Z,1007.99
2018-06-29T07:07:41.434Z,1007.99
2018-06-29T07:08:41.498Z,1007.96
2018-06-29T07:09:42.307Z,1007.95
2018-06-29T07:10:41.628Z,1007.98
2018-06-29T07:11:41.694Z,1008.00
2018-06-29T07:12:41.855Z,1008.04
2018-06-29T07:13:41.823Z,1007.97
2018-06-29T07:14:41.887Z,1007.96
2018-06-29T07:15:41.953Z,1007.98
2018-06-29T07:16:42.018Z,1008.00
2018-06-29T07:17:42.082Z,1007.99
2018-06-29T07:18:42.148Z,1007.99
2018-06-29T07:19:42.212Z,1008.00
2018-06-29T07:20:42.978Z,1008.01
2018-06-29T07:21:42.343Z,1008.01
2018-06-29T07:22:42.407Z,1008.03
2018-06-29T07:23:42.473Z,1007.99
2018-06-29T07:24:42.537Z,1008.02
2018-06-29T07:25:43.316Z,1007.98
2018-06-29T07:26:42.668Z,1007.93
2018-06-29T07:27:42.733Z,1007.96
2018-06-29T07:28:42.797Z,1007.96
2018-06-29T07:29:42.862Z,1007.99
2018-06-29T07:30:42.928Z,1007.94
2018-06-29T07:31:42.993Z,1007.94
2018-06-29T07:32:43.057Z,1007.94
2018-06-29T07:33:43.122Z,1007.92
2018-06-29T07:34:43.195Z,1007.94
2018-06-29T07:35:43.253Z,1007.92
2018-06-29T07:36:43.318Z,1007.86
2018-06-29T07:37:43.383Z,1007.88
2018-06-29T07:38:43.476Z,1007.87
2018-06-29T07:39:43.514Z,1007.87
2018-06-29T07:40:43.578Z,1007.86
2018-06-29T07:41:43.644Z,1007.84
2018-06-29T07:42:43.710Z,1007.83
2018-06-29T07:43:43.782Z,1007.84
2018-06-29T07:44:43.839Z,1007.85
2018-06-29T07:45:43.905Z,1007.83
2018-06-29T07:46:44.038Z,1007.82
2018-06-29T07:47:44.043Z,1007.84
2018-06-29T07:48:44.102Z,1007.87
2018-06-29T07:49:44.171Z,1007.84
2018-06-29T07:50:44.233Z,1007.85
2018-06-29T07:51:44.299Z,1007.81
2018-06-29T07:52:44.366Z,1007.87
2018-06-29T07:53:44.429Z,1007.84
2018-06-29T07:54:44.496Z,1007.86
2018-06-29T07:55:44.561Z,1007.92
2018-06-29T07:56:44.626Z,1007.84
2018-06-29T07:57:44.691Z,1007.82
2018-06-29T07:58:44.928Z,1007.86
2018-06-29T07:59:44.823Z,1007.84
2018-06-29T08:00:44.889Z,1007.86
2018-06-29T08:01:44.955Z,1007.81
2018-06-29T08:02:45.085Z,1007.82
2018-06-29T08:03:45.086Z,1007.82
2018-06-29T08:04:45.151Z,1007.82
2018-06-29T08:05:45.216Z,1007.82
2018-06-29T08:06:45.283Z,1007.82
2018-06-29T08:07:45.348Z,1007.83
2018-06-29T08:08:45.414Z,1007.85
2018-06-29T08:09:45.479Z,1007.82
2018-06-29T08:10:45.545Z,1007.84
2018-06-29T08:11:45.611Z,1007.81
2018-06-29T08:12:45.677Z,1007.79
2018-06-29T08:13:45.742Z,1007.79
2018-06-29T08:14:45.808Z,1007.73
2018-06-29T08:15:45.874Z,1007.75
2018-06-29T08:16:45.961Z,1007.77
2018-06-29T08:17:46.006Z,1007.77
2018-06-29T08:18:46.092Z,1007.84
2018-06-29T08:19:46.537Z,1007.84
2018-06-29T08:20:46.225Z,1007.76
2018-06-29T08:21:46.271Z,1007.78
2018-06-29T08:22:46.693Z,1007.82
2018-06-29T08:23:46.404Z,1007.85
2018-06-29T08:24:46.465Z,1007.82
2018-06-29T08:25:46.532Z,1007.80
2018-06-29T08:26:46.974Z,1007.86
2018-06-29T08:27:47.308Z,1007.84
2018-06-29T08:28:46.730Z,1007.88
2018-06-29T08:29:46.796Z,1007.82
2018-06-29T08:30:46.862Z,1007.85
2018-06-29T08:31:46.928Z,1007.84
2018-06-29T08:32:46.993Z,1007.86
2018-06-29T08:33:47.061Z,1007.85
2018-06-29T08:34:47.125Z,1007.81
2018-06-29T08:35:47.193Z,1007.86
2018-06-29T08:36:47.259Z,1007.86
2018-06-29T08:37:48.040Z,1007.85
2018-06-29T08:38:47.391Z,1007.81
2018-06-29T08:39:47.457Z,1007.82
2018-06-29T08:40:47.550Z,1007.77
2018-06-29T08:41:47.590Z,1007.77
2018-06-29T08:42:47.656Z,1007.85
2018-06-29T08:43:47.728Z,1007.78
2018-06-29T08:44:47.787Z,1007.80
2018-06-29T08:45:47.856Z,1007.78
2018-06-29T08:46:47.982Z,1007.77
2018-06-29T08:47:47.987Z,1007.76
2018-06-29T08:48:48.052Z,1007.79
2018-06-29T08:49:48.118Z,1007.76
2018-06-29T08:50:48.186Z,1007.81
2018-06-29T08:51:48.253Z,1007.76
2018-06-29T08:52:48.316Z,1007.77
2018-06-29T08:53:48.384Z,1007.76
2018-06-29T08:54:48.450Z,1007.81
2018-06-29T08:55:48.766Z,1007.79
2018-06-29T08:56:48.582Z,1007.82
2018-06-29T08:57:48.648Z,1007.83
2018-06-29T08:58:48.763Z,1007.83
2018-06-29T08:59:48.781Z,1007.83
2018-06-29T09:00:48.847Z,1007.81
2018-06-29T09:01:48.913Z,1007.80
2018-06-29T09:02:48.981Z,1007.88
2018-06-29T09:03:49.047Z,1007.71
2018-06-29T09:04:49.114Z,1007.72
2018-06-29T09:05:49.181Z,1007.72
2018-06-29T09:06:49.246Z,1007.70
2018-06-29T09:07:49.313Z,1007.63
2018-06-29T09:08:49.380Z,1007.68
2018-06-29T09:09:49.447Z,1007.67
2018-06-29T09:10:49.514Z,1007.66
2018-06-29T09:11:49.579Z,1007.70
2018-06-29T09:12:49.645Z,1007.71
2018-06-29T09:13:49.712Z,1007.68
2018-06-29T09:14:49.778Z,1007.67
2018-06-29T09:15:49.847Z,1007.70
2018-06-29T09:16:49.911Z,1007.68
2018-06-29T09:17:49.979Z,1007.65
2018-06-29T09:18:50.047Z,1007.70
2018-06-29T09:19:50.112Z,1007.70
2018-06-29T09:20:50.179Z,1007.68
2018-06-29T09:21:50.245Z,1007.67
2018-06-29T09:22:50.312Z,1007.66
2018-06-29T09:23:50.379Z,1007.69
2018-06-29T09:24:50.446Z,1007.66
2018-06-29T09:25:50.512Z,1007.66
2018-06-29T09:26:50.579Z,1007.68
2018-06-29T09:27:50.646Z,1007.67
2018-06-29T09:28:50.713Z,1007.63
2018-06-29T09:29:50.844Z,1007.61
2018-06-29T09:30:50.846Z,1007.63
2018-06-29T09:31:50.915Z,1007.65
2018-06-29T09:32:50.980Z,1007.60
2018-06-29T09:33:51.050Z,1007.56
2018-06-29T09:34:51.114Z,1007.56
2018-06-29T09:35:51.183Z,1007.58
2018-06-29T09:36:51.248Z,1007.62
2018-06-29T09:37:51.318Z,1007.55
2018-06-29T09:38:51.382Z,1007.57
2018-06-29T09:39:51.451Z,1007.58
2018-06-29T09:40:51.516Z,1007.55
2018-06-29T09:41:51.584Z,1007.55
2018-06-29T09:42:51.652Z,1007.58
2018-06-29T09:43:51.718Z,1007.58
2018-06-29T09:44:51.785Z,1007.58
2018-06-29T09:45:51.851Z,1007.59
2018-06-29T09:46:51.920Z,1007.53
2018-06-29T09:47:52.036Z,1007.56
2018-06-29T09:48:52.054Z,1007.49
2018-06-29T09:49:52.138Z,1007.61
2018-06-29T09:50:52.188Z,1007.57
2018-06-29T09:51:52.258Z,1007.60
2018-06-29T09:52:52.474Z,1007.53
2018-06-29T09:53:52.392Z,1007.57
2018-06-29T09:54:52.457Z,1007.58
2018-06-29T09:55:52.525Z,1007.55
2018-06-29T09:56:52.591Z,1007.50
2018-06-29T09:57:52.661Z,1007.55
2018-06-29T09:58:52.727Z,1007.59
2018-06-29T09:59:52.795Z,1007.58
2018-06-29T10:00:55.414Z,1007.58
2018-06-29T10:01:52.930Z,1007.55
2018-06-29T10:02:52.997Z,1007.55
2018-06-29T10:03:53.065Z,1007.53
2018-06-29T10:04:53.133Z,1007.49
2018-06-29T10:05:53.201Z,1007.65
2018-06-29T10:06:53.271Z,1007.89
2018-06-29T10:07:54.215Z,1008.04
2018-06-29T10:08:53.409Z,1008.06
2018-06-29T10:09:53.478Z,1008.06
2018-06-29T10:10:53.547Z,1008.16
2018-06-29T10:11:53.618Z,1008.11
2018-06-29T10:12:53.688Z,1008.14
2018-06-29T10:13:53.758Z,1008.16
2018-06-29T10:14:53.829Z,1008.18
2018-06-29T10:15:53.900Z,1008.17
2018-06-29T10:16:53.971Z,1008.09
2018-06-29T10:17:54.042Z,1008.07
2018-06-29T10:18:54.115Z,1008.12
2018-06-29T10:19:54.224Z,1008.09
2018-06-29T10:20:54.260Z,1008.10
2018-06-29T10:21:54.332Z,1008.16
2018-06-29T10:22:54.409Z,1008.15
2018-06-29T10:23:54.478Z,1008.17
2018-06-29T10:24:54.555Z,1008.16
2018-06-29T10:25:54.625Z,1008.16
2018-06-29T10:26:54.702Z,1008.16
2018-06-29T10:27:54.834Z,1008.13
2018-06-29T10:28:54.847Z,1008.13
2018-06-29T10:29:54.921Z,1008.15
2018-06-29T10:30:55.060Z,1008.09
2018-06-29T10:31:55.071Z,1008.14
2018-06-29T10:32:55.145Z,1008.13
2018-06-29T10:33:55.224Z,1008.12
2018-06-29T10:34:55.296Z,1008.13
2018-06-29T10:35:55.421Z,1008.18
2018-06-29T10:36:55.446Z,1008.11
2018-06-29T10:37:55.854Z,1008.15
2018-06-29T10:38:55.633Z,1008.11
2018-06-29T10:39:55.674Z,1008.07
2018-06-29T10:40:55.758Z,1008.09
2018-06-29T10:41:56.149Z,1008.12
2018-06-29T10:42:55.900Z,1007.98
2018-06-29T10:43:55.976Z,1008.04
2018-06-29T10:44:56.112Z,1008.03
2018-06-29T10:45:56.128Z,1008.06
2018-06-29T10:46:56.205Z,1008.04
2018-06-29T10:47:56.280Z,1008.01
2018-06-29T10:48:56.506Z,1007.99
2018-06-29T10:49:56.432Z,1008.04
2018-06-29T10:50:56.510Z,1007.99
2018-06-29T10:51:56.599Z,1007.96
2018-06-29T10:52:56.740Z,1008.00
2018-06-29T10:53:56.736Z,1007.94
2018-06-29T10:54:56.814Z,1007.96
2018-06-29T10:55:56.892Z,1007.96
2018-06-29T10:56:56.967Z,1007.97
2018-06-29T10:57:57.047Z,1007.96
2018-06-29T10:58:57.121Z,1007.92
2018-06-29T10:59:57.198Z,1007.87
2018-06-29T11:00:57.271Z,1007.86
2018-06-29T11:01:57.349Z,1007.20
2018-06-29T11:02:57.425Z,1007.78
2018-06-29T11:03:57.503Z,1007.46
2018-06-29T11:04:57.579Z,1007.90
2018-06-29T11:05:57.656Z,1007.83
2018-06-29T11:06:57.741Z,1007.83
2018-06-29T11:07:57.809Z,1007.85
2018-06-29T11:08:57.885Z,1007.82
2018-06-29T11:09:57.960Z,1007.83
2018-06-29T11:10:58.075Z,1007.86
2018-06-29T11:11:58.113Z,1007.81
2018-06-29T11:12:58.190Z,1007.86
2018-06-29T11:13:58.265Z,1007.82
2018-06-29T11:14:58.342Z,1007.75
2018-06-29T11:15:58.419Z,1007.72
2018-06-29T11:16:58.497Z,1007.71
2018-06-29T11:17:59.092Z,1007.67
2018-06-29T11:18:59.235Z,1007.67
2018-06-29T11:19:59.588Z,1007.66
2018-06-29T11:20:59.658Z,1007.71
2018-06-29T11:21:59.709Z,1007.70
2018-06-29T11:22:59.550Z,1007.69
2018-06-29T11:24:00.264Z,1007.66
2018-06-29T11:24:59.704Z,1007.59
2018-06-29T11:25:59.909Z,1007.60
2018-06-29T11:26:59.653Z,1007.61
2018-06-29T11:27:59.905Z,1007.65
2018-06-29T11:28:59.853Z,1007.63
2018-06-29T11:30:00.205Z,1007.61
2018-06-29T11:31:00.539Z,1007.60
2018-06-29T11:32:00.159Z,1007.59
2018-06-29T11:33:00.377Z,1007.57
2018-06-29T11:34:00.427Z,1007.56
2018-06-29T11:35:00.544Z,1007.52
2018-06-29T11:36:00.037Z,1007.55
2018-06-29T11:37:00.730Z,1007.54
2018-06-29T11:38:00.591Z,1007.32
2018-06-29T11:39:00.666Z,1007.49
2018-06-29T11:40:00.636Z,1007.38
2018-06-29T11:41:00.335Z,1007.67
2018-06-29T11:42:00.416Z,1007.76
2018-06-29T11:43:00.489Z,1007.83
2018-06-29T11:44:00.574Z,1008.03
2018-06-29T11:45:00.648Z,1008.16
2018-06-29T11:46:00.719Z,1008.35
2018-06-29T11:47:00.947Z,1008.51
2018-06-29T11:48:00.873Z,1008.64
2018-06-29T11:49:00.949Z,1008.80
2018-06-29T11:50:01.027Z,1008.94
2018-06-29T11:51:01.533Z,1009.09
2018-06-29T11:52:02.129Z,1009.11
2018-06-29T11:53:01.257Z,1009.16
2018-06-29T11:54:01.335Z,1009.17
2018-06-29T11:55:01.420Z,1009.27
2018-06-29T11:56:01.489Z,1009.35
2018-06-29T11:57:01.565Z,1009.32
2018-06-29T11:58:01.643Z,1009.20
2018-06-29T11:59:01.719Z,1009.22
2018-06-29T12:00:01.798Z,1009.12
2018-06-29T12:01:01.873Z,1009.11
2018-06-29T12:02:01.952Z,1009.07
2018-06-29T12:03:02.031Z,1009.03
2018-06-29T12:04:02.105Z,1009.14
2018-06-29T12:05:02.184Z,1009.20
2018-06-29T12:06:02.263Z,1009.15